Terminal Aerodrome Forecast
Issued by NWS

Home | Current Version | Previous Version | Graphics & Text | Print | Product List | Glossary On
Versions: 1 2 3 4 5 6 7 8 9 10 11 12 13 14 15 16 17 18 19 20 21
000
FTUS43 KGRB 040537
TAFCWA
TAF
KCWA 040537Z 0406/0506 VRB02KT 4SM BR SCT015
      TEMPO 0406/0408 2SM BR SCT004 BKN015
     FM040800 VRB03KT 2SM BR BKN004
      TEMPO 0408/0412 1/2SM FG
     FM041500 06005KT P6SM SCT004 BKN015
     FM041700 13005KT P6SM SCT020 SCT200=

USA.gov is the U.S. government's official web portal to all federal, state and local government web resources and services.